Time;durP1;ratioP1;P1;durP2;ratioP2;P2;SDS_P1;SDS_P2;PMS_P1;PMS_P2;Temp;Humidity;BMP_temperature;BMP_pressure;BME280_temperature;BME280_humidity;BME280_pressure;Samples;Min_cycle;Max_cycle;Signal;HPM_P1;HPM_P2
2022/03/10 00:02:24;;;;;;;15.07;6.93;;;-0.60;99.90;;;;;;5035704;28;20502;-60
2022/03/10 00:04:49;;;;;;;21.95;7.65;;;-0.60;99.90;;;;;;5036943;28;20034;-60
2022/03/10 00:07:15;;;;;;;18.10;8.50;;;-0.60;99.90;;;;;;5035455;28;20132;-60
2022/03/10 00:09:41;;;;;;;16.75;7.68;;;-0.70;99.90;;;;;;5035599;28;20057;-60
2022/03/10 00:12:07;;;;;;;19.83;7.30;;;-0.70;99.90;;;;;;5036829;28;20029;-61
2022/03/10 00:14:33;;;;;;;16.27;7.10;;;-0.70;99.90;;;;;;5036869;28;20030;-60
2022/03/10 00:16:59;;;;;;;13.18;6.80;;;-0.70;99.90;;;;;;5037175;28;20038;-61
2022/03/10 00:19:24;;;;;;;18.70;7.40;;;1.50;99.90;;;;;;5036407;28;20101;-60
2022/03/10 00:21:50;;;;;;;16.92;7.07;;;-0.80;99.90;;;;;;5036591;28;20478;-61
2022/03/10 00:24:18;;;;;;;17.45;7.75;;;-0.80;99.90;;;;;;5036632;28;20033;-60
2022/03/10 00:26:44;;;;;;;16.27;6.80;;;-0.70;99.90;;;;;;5035276;28;20033;-61
2022/03/10 00:29:10;;;;;;;11.00;5.93;;;-0.50;99.90;;;;;;5036693;28;20033;-60
2022/03/10 00:31:36;;;;;;;17.85;7.65;;;-0.80;99.90;;;;;;5036475;28;20048;-60
2022/03/10 00:34:02;;;;;;;16.25;7.47;;;-0.80;99.90;;;;;;5036495;28;20066;-60
2022/03/10 00:36:28;;;;;;;14.73;6.80;;;-0.60;99.90;;;;;;5035034;28;20458;-61
2022/03/10 00:38:54;;;;;;;15.40;6.95;;;1.40;99.90;;;;;;5035053;28;20036;-60
2022/03/10 00:41:20;;;;;;;14.70;6.28;;;-0.90;99.90;;;;;;5036267;28;20454;-60
2022/03/10 00:43:45;;;;;;;10.57;5.78;;;-0.90;99.90;;;;;;5036243;28;20065;-61
2022/03/10 00:46:11;;;;;;;16.13;6.90;;;-0.80;99.90;;;;;;5036037;28;20033;-60
2022/03/10 00:48:37;;;;;;;12.48;6.63;;;-0.90;99.90;;;;;;5036144;28;20034;-60
2022/03/10 00:51:04;;;;;;;17.20;6.70;;;-0.90;99.90;;;;;;5036129;28;20100;-61
2022/03/10 00:53:30;;;;;;;13.23;5.78;;;-0.90;99.90;;;;;;5034762;28;20091;-60
2022/03/10 00:55:55;;;;;;;12.48;5.97;;;-0.90;99.90;;;;;;5036323;28;20029;-60
2022/03/10 00:58:21;;;;;;;13.35;6.70;;;-1.00;99.90;;;;;;5035914;28;20034;-61
2022/03/10 01:00:47;;;;;;;15.65;6.90;;;1.20;99.90;;;;;;5035850;28;20112;-60
2022/03/10 01:03:12;;;;;;;15.60;6.80;;;-1.00;99.90;;;;;;5035982;28;20100;-60
2022/03/10 01:05:38;;;;;;;14.68;6.85;;;-1.00;99.90;;;;;;5035573;28;20284;-61
2022/03/10 01:08:04;;;;;;;15.63;6.43;;;-1.00;99.90;;;;;;5036167;28;20055;-60
2022/03/10 01:10:30;;;;;;;13.48;6.47;;;-1.10;99.90;;;;;;5035630;28;20034;-60
2022/03/10 01:12:55;;;;;;;18.42;7.38;;;-1.10;99.90;;;;;;5035438;28;20033;-60
2022/03/10 01:15:24;;;;;;;14.02;5.90;;;-1.10;99.90;;;;;;5035648;28;20108;-60
2022/03/10 01:17:50;;;;;;;14.10;6.60;;;-1.10;99.90;;;;;;5034503;28;20034;-60
2022/03/10 01:20:21;;;;;;;16.25;6.43;;;-1.10;99.90;;;;;;5035960;28;20037;-61
2022/03/10 01:22:47;;;;;;;12.30;6.05;;;-1.00;99.90;;;;;;5035599;28;20096;-60
2022/03/10 01:25:13;;;;;;;11.73;6.22;;;-1.20;99.90;;;;;;5035523;28;20029;-60
2022/03/10 01:27:39;;;;;;;18.88;6.50;;;-1.20;99.90;;;;;;5035743;28;20025;-60
2022/03/10 01:30:06;;;;;;;17.52;6.43;;;-1.20;99.90;;;;;;5035402;28;20029;-60
2022/03/10 01:32:34;;;;;;;14.63;6.03;;;-1.20;99.90;;;;;;5034098;28;20368;-60
2022/03/10 01:35:01;;;;;;;15.73;6.55;;;-1.20;99.90;;;;;;5034011;28;20033;-60
2022/03/10 01:37:27;;;;;;;16.15;6.05;;;0.50;99.90;;;;;;5035176;28;20061;-60
2022/03/10 01:39:53;;;;;;;14.57;6.70;;;-1.20;99.90;;;;;;5035174;28;20409;-60
2022/03/10 01:42:18;;;;;;;13.40;6.53;;;-1.20;99.90;;;;;;5034958;28;20113;-60
2022/03/10 01:44:44;;;;;;;16.33;6.15;;;-1.20;99.90;;;;;;5033533;28;20022;-60
2022/03/10 01:47:10;;;;;;;12.68;6.20;;;-1.20;99.90;;;;;;5033758;28;20065;-60
2022/03/10 01:49:37;;;;;;;13.20;6.22;;;-1.20;99.90;;;;;;5035024;28;20017;-60
2022/03/10 01:52:03;;;;;;;13.27;6.40;;;-1.20;99.90;;;;;;5034960;28;20025;-60
2022/03/10 01:54:29;;;;;;;16.20;6.13;;;-1.20;99.90;;;;;;5033604;28;20029;-61
2022/03/10 01:56:55;;;;;;;14.45;6.40;;;-1.20;99.90;;;;;;5034670;28;20572;-60
2022/03/10 01:59:21;;;;;;;14.05;5.93;;;-1.20;99.90;;;;;;5034845;28;20097;-60
2022/03/10 02:01:47;;;;;;;15.73;6.68;;;-1.30;99.90;;;;;;5034731;28;20100;-60
2022/03/10 02:04:13;;;;;;;12.27;5.90;;;-1.30;99.90;;;;;;5035032;28;20412;-61
2022/03/10 02:06:39;;;;;;;15.93;7.28;;;-0.80;99.90;;;;;;5032864;28;20056;-60
2022/03/10 02:11:49;;;;;;;13.27;6.65;;;-0.70;99.90;;;;;;5034359;28;20044;-60
2022/03/10 02:19:43;;;;;;;12.23;5.82;;;-1.50;99.90;;;;;;5033716;28;20446;-60
2022/03/10 02:22:13;;;;;;;14.55;6.88;;;-1.10;99.90;;;;;;5034446;28;20025;-60
2022/03/10 02:24:41;;;;;;;13.20;6.32;;;-1.10;99.90;;;;;;5033300;28;20025;-60
2022/03/10 02:27:13;;;;;;;11.88;5.85;;;-1.40;99.90;;;;;;5034618;28;20033;-60
2022/03/10 02:29:42;;;;;;;14.73;6.20;;;-1.50;99.90;;;;;;5033282;28;20035;-60
2022/03/10 02:32:08;;;;;;;14.05;6.50;;;-1.50;99.90;;;;;;5033004;28;20057;-60
2022/03/10 02:34:33;;;;;;;13.85;6.43;;;0.80;99.90;;;;;;5033940;28;20064;-60
2022/03/10 02:36:59;;;;;;;13.32;6.57;;;0.20;99.90;;;;;;5034099;28;20041;-60
2022/03/10 02:39:24;;;;;;;13.70;6.00;;;-1.50;99.90;;;;;;5033853;28;20026;-60
2022/03/10 02:41:50;;;;;;;15.00;7.10;;;-1.60;99.90;;;;;;5032845;28;20040;-60
2022/03/10 02:44:16;;;;;;;10.02;5.68;;;-1.50;99.90;;;;;;5032808;28;20457;-60
2022/03/10 02:46:41;;;;;;;16.48;7.38;;;-0.80;99.90;;;;;;5032811;28;20025;-60
2022/03/10 02:49:07;;;;;;;17.02;6.07;;;-1.60;99.90;;;;;;5033718;28;20487;-60
2022/03/10 02:51:33;;;;;;;13.63;6.00;;;-1.50;99.90;;;;;;5033983;28;20449;-60
2022/03/10 02:53:58;;;;;;;11.25;5.72;;;-1.60;99.90;;;;;;5033926;28;20470;-60
2022/03/10 02:56:24;;;;;;;11.77;5.63;;;-1.60;99.90;;;;;;5032843;28;20021;-60
2022/03/10 02:58:50;;;;;;;12.70;5.93;;;-1.60;99.90;;;;;;5032811;28;20044;-60
2022/03/10 03:01:15;;;;;;;14.00;6.65;;;-1.60;99.90;;;;;;5032568;28;20075;-60
2022/03/10 03:03:41;;;;;;;14.05;6.97;;;-1.60;99.90;;;;;;5033835;28;20029;-60
2022/03/10 03:06:07;;;;;;;13.88;6.40;;;-1.60;99.90;;;;;;5032361;28;20053;-60
2022/03/10 03:08:32;;;;;;;12.15;5.78;;;-1.60;99.90;;;;;;5032968;28;20056;-60
2022/03/10 03:10:58;;;;;;;11.88;5.95;;;-1.60;99.90;;;;;;5032195;28;20488;-60
2022/03/10 03:13:24;;;;;;;13.10;6.60;;;-1.50;99.90;;;;;;5033707;28;20116;-60
2022/03/10 03:16:08;;;;;;;15.13;7.10;;;0.00;99.90;;;;;;5032139;28;20033;-60
2022/03/10 03:18:33;;;;;;;14.40;5.88;;;-1.70;99.90;;;;;;5032068;28;20042;-60
2022/03/10 03:20:59;;;;;;;11.68;5.63;;;-1.70;99.90;;;;;;5032435;28;20079;-60
2022/03/10 03:23:25;;;;;;;17.73;5.78;;;-1.70;99.90;;;;;;5032396;28;20032;-60
2022/03/10 03:25:51;;;;;;;13.20;6.72;;;-1.60;99.90;;;;;;5033604;28;20112;-60
2022/03/10 03:28:19;;;;;;;13.52;6.25;;;-0.50;99.90;;;;;;5033416;28;20089;-60
2022/03/10 03:30:45;;;;;;;14.43;6.53;;;-0.40;99.90;;;;;;5032334;28;20025;-60
2022/03/10 03:33:10;;;;;;;13.90;6.03;;;-1.70;99.90;;;;;;5035999;28;20032;-60
2022/03/10 03:35:36;;;;;;;9.43;5.63;;;-1.70;99.90;;;;;;5037497;28;20022;-60
2022/03/10 03:38:02;;;;;;;10.70;6.10;;;-1.70;99.90;;;;;;5037080;28;20043;-60
2022/03/10 03:40:27;;;;;;;19.08;7.05;;;-0.10;99.90;;;;;;5037950;28;20076;-61
2022/03/10 03:42:53;;;;;;;16.20;6.28;;;-1.60;99.90;;;;;;5036127;28;20137;-60
2022/03/10 03:45:19;;;;;;;17.60;6.40;;;-1.80;99.90;;;;;;5037220;28;20030;-60
2022/03/10 03:47:44;;;;;;;16.77;6.07;;;-1.80;99.90;;;;;;5036153;28;20025;-60
2022/03/10 03:50:11;;;;;;;14.95;5.93;;;-1.80;99.90;;;;;;5037220;28;20103;-61
2022/03/10 03:52:37;;;;;;;17.83;6.32;;;-1.90;99.90;;;;;;5037340;28;20037;-60
2022/03/10 03:55:02;;;;;;;15.32;6.15;;;-1.90;99.90;;;;;;5036860;28;20381;-60
2022/03/10 03:57:28;;;;;;;16.48;7.40;;;-1.80;99.90;;;;;;5035457;28;20040;-60
2022/03/10 03:59:54;;;;;;;13.07;6.18;;;0.50;99.90;;;;;;5035494;28;20068;-60
2022/03/10 04:02:20;;;;;;;13.32;5.70;;;-1.70;99.90;;;;;;5035808;28;20028;-60
2022/03/10 04:04:45;;;;;;;13.27;6.72;;;-1.90;99.90;;;;;;5036997;28;20378;-60
2022/03/10 04:07:12;;;;;;;12.70;6.15;;;-1.90;99.90;;;;;;5037161;28;20056;-60
2022/03/10 04:09:37;;;;;;;13.00;5.53;;;0.30;99.90;;;;;;5037115;28;20029;-60
2022/03/10 04:12:03;;;;;;;15.45;5.97;;;-2.00;99.90;;;;;;5036831;28;20030;-60
2022/03/10 04:14:29;;;;;;;18.42;6.75;;;-1.90;99.90;;;;;;5036831;28;20057;-60
2022/03/10 04:16:55;;;;;;;15.77;6.50;;;-2.00;99.90;;;;;;5036728;28;20076;-60
2022/03/10 04:19:20;;;;;;;12.75;6.03;;;-2.00;99.90;;;;;;5036718;28;20477;-60
2022/03/10 04:21:46;;;;;;;17.65;6.88;;;-2.00;99.90;;;;;;5036675;28;20040;-60
2022/03/10 04:24:12;;;;;;;15.40;6.45;;;-0.10;99.90;;;;;;5035369;28;20483;-60
2022/03/10 04:26:39;;;;;;;14.32;6.53;;;-1.80;99.90;;;;;;5036584;28;20100;-60
2022/03/10 04:29:04;;;;;;;15.27;6.78;;;-2.00;99.90;;;;;;5036503;28;20029;-60
2022/03/10 04:31:30;;;;;;;11.18;6.15;;;-2.00;99.90;;;;;;5036496;28;20462;-60
2022/03/10 04:33:56;;;;;;;13.50;6.75;;;-1.20;99.90;;;;;;5035118;28;20025;-60
2022/03/10 04:36:22;;;;;;;15.02;6.78;;;-2.10;99.90;;;;;;5035165;28;20026;-60
2022/03/10 04:38:47;;;;;;;12.68;6.07;;;-2.00;99.90;;;;;;5036281;28;20129;-60
2022/03/10 04:41:13;;;;;;;16.98;5.90;;;-1.70;99.90;;;;;;5036315;28;20100;-60
2022/03/10 04:43:39;;;;;;;14.55;6.18;;;-2.10;99.90;;;;;;5035480;28;20076;-60
2022/03/10 04:46:05;;;;;;;11.45;6.10;;;-0.70;99.90;;;;;;5036057;28;20025;-60
2022/03/10 04:48:31;;;;;;;17.13;5.78;;;-1.80;99.90;;;;;;5036183;28;20029;-60
2022/03/10 04:50:56;;;;;;;13.30;6.93;;;0.10;99.90;;;;;;5036151;28;20029;-60
2022/03/10 04:53:22;;;;;;;13.20;5.85;;;-1.30;99.90;;;;;;5035809;28;20093;-60
2022/03/10 04:55:48;;;;;;;12.68;5.80;;;-2.20;99.90;;;;;;5036031;28;20047;-60
2022/03/10 04:58:14;;;;;;;14.75;6.40;;;-2.20;99.90;;;;;;5034647;28;20079;-60
2022/03/10 05:00:39;;;;;;;12.77;6.40;;;-2.00;99.90;;;;;;5035959;28;20116;-60
2022/03/10 05:03:05;;;;;;;15.05;6.80;;;-1.40;99.90;;;;;;5035869;28;20026;-60
2022/03/10 05:05:31;;;;;;;14.77;6.60;;;-1.10;99.90;;;;;;5035591;28;20025;-60
2022/03/10 05:07:56;;;;;;;11.55;6.28;;;-2.20;99.90;;;;;;5036277;28;20049;-60
2022/03/10 05:10:22;;;;;;;15.63;7.13;;;-2.20;99.90;;;;;;5034486;28;20096;-60
2022/03/10 05:12:57;;;;;;;18.10;6.53;;;0.00;99.90;;;;;;5035460;28;20030;-60
2022/03/10 05:15:26;;;;;;;12.75;5.82;;;-2.20;99.90;;;;;;5035706;28;20064;-60
2022/03/10 05:17:52;;;;;;;12.98;5.72;;;-2.20;99.90;;;;;;5035269;28;20029;-61
2022/03/10 05:20:19;;;;;;;12.00;6.47;;;-2.20;99.90;;;;;;5035875;28;20108;-60
2022/03/10 05:22:50;;;;;;;11.95;6.63;;;0.00;99.90;;;;;;5035276;28;20033;-60
2022/03/10 05:25:17;;;;;;;12.80;6.10;;;-2.20;99.90;;;;;;5035885;28;20370;-61
2022/03/10 05:27:44;;;;;;;16.88;6.18;;;-2.20;99.90;;;;;;5035198;28;20034;-61
2022/03/10 05:30:10;;;;;;;13.85;6.18;;;-2.00;99.90;;;;;;5034280;28;20425;-61
2022/03/10 05:32:36;;;;;;;14.95;6.47;;;-2.20;99.90;;;;;;5034646;28;20034;-60
2022/03/10 05:35:03;;;;;;;16.33;6.38;;;-2.20;99.90;;;;;;5034005;28;20462;-61
2022/03/10 05:37:30;;;;;;;12.05;6.28;;;-2.20;99.90;;;;;;5035221;28;20116;-61
2022/03/10 05:39:55;;;;;;;15.48;6.80;;;-0.90;99.90;;;;;;5035221;28;20025;-61
2022/03/10 05:42:21;;;;;;;15.65;7.00;;;0.40;99.90;;;;;;5035134;28;20437;-61
2022/03/10 05:44:47;;;;;;;13.95;6.75;;;-1.90;99.90;;;;;;5033795;28;20032;-61
2022/03/10 05:47:13;;;;;;;18.10;6.72;;;-2.10;99.90;;;;;;5035245;28;20102;-61
2022/03/10 05:49:38;;;;;;;12.77;6.75;;;-0.60;99.90;;;;;;5034958;28;20032;-61
2022/03/10 05:52:05;;;;;;;17.20;7.35;;;-1.90;99.90;;;;;;5035320;28;20079;-61
2022/03/10 05:54:31;;;;;;;17.50;7.05;;;-1.80;99.90;;;;;;5034003;28;20095;-61
2022/03/10 05:56:57;;;;;;;20.88;6.68;;;0.40;99.90;;;;;;5034773;28;20466;-60
2022/03/10 05:59:23;;;;;;;21.98;8.13;;;-1.00;99.90;;;;;;5034555;28;20055;-61
2022/03/10 06:01:49;;;;;;;14.38;7.25;;;-1.50;99.90;;;;;;5034780;28;20032;-61
2022/03/10 06:04:15;;;;;;;13.30;6.20;;;-1.60;99.90;;;;;;5033530;28;20079;-61
2022/03/10 06:06:43;;;;;;;15.02;6.80;;;-1.30;99.90;;;;;;5034582;28;20049;-61
2022/03/10 06:09:09;;;;;;;14.93;7.18;;;0.50;99.90;;;;;;5034826;28;20017;-61
2022/03/10 06:11:35;;;;;;;15.02;7.07;;;-0.60;99.90;;;;;;5034331;28;20034;-61
2022/03/10 06:14:00;;;;;;;14.88;7.00;;;-1.30;99.90;;;;;;5034681;28;20539;-61
2022/03/10 06:16:26;;;;;;;23.55;7.60;;;-1.20;99.90;;;;;;5034479;28;20025;-61
2022/03/10 06:18:52;;;;;;;19.60;7.18;;;-1.10;99.90;;;;;;5032809;28;20087;-61
2022/03/10 06:21:18;;;;;;;15.75;7.35;;;-1.00;99.90;;;;;;5034434;28;20048;-62
2022/03/10 06:23:43;;;;;;;12.88;7.65;;;-0.90;99.90;;;;;;5034606;28;20461;-61
2022/03/10 06:26:09;;;;;;;21.70;7.78;;;-0.70;99.90;;;;;;5033027;28;20033;-61
2022/03/10 06:28:35;;;;;;;17.98;8.52;;;-0.60;99.90;;;;;;5033057;28;20029;-61
2022/03/10 06:31:00;;;;;;;18.33;8.73;;;-0.50;99.90;;;;;;5034263;28;20060;-61
2022/03/10 06:33:26;;;;;;;21.50;9.13;;;-0.20;99.90;;;;;;5033902;28;20061;-61
2022/03/10 06:35:52;;;;;;;20.00;7.97;;;-0.30;99.90;;;;;;5034208;28;20033;-62
2022/03/10 06:38:18;;;;;;;20.23;8.55;;;-0.30;99.90;;;;;;5034257;28;20033;-61
2022/03/10 06:40:44;;;;;;;26.48;8.60;;;-0.20;99.90;;;;;;5033825;28;20103;-62
2022/03/10 06:43:09;;;;;;;19.20;8.98;;;-0.10;99.90;;;;;;5034051;28;20111;-62
2022/03/10 06:45:35;;;;;;;15.90;8.07;;;0.00;99.90;;;;;;5034383;28;20397;-61
2022/03/10 06:48:01;;;;;;;18.83;8.50;;;0.10;99.90;;;;;;5032714;28;20025;-61
2022/03/10 06:50:28;;;;;;;21.15;9.00;;;0.30;99.90;;;;;;5032773;28;20022;-62
2022/03/10 06:52:56;;;;;;;17.52;8.50;;;0.40;99.90;;;;;;5032655;28;20037;-61
2022/03/10 06:55:23;;;;;;;17.85;8.35;;;0.40;99.90;;;;;;5033137;28;20360;-61
2022/03/10 06:57:49;;;;;;;18.23;8.40;;;0.40;99.90;;;;;;5033837;28;20033;-62
2022/03/10 07:00:15;;;;;;;20.23;8.60;;;0.50;99.90;;;;;;5032741;28;20025;-62
2022/03/10 07:02:40;;;;;;;22.98;9.00;;;0.60;99.90;;;;;;5034162;28;20029;-61
2022/03/10 07:05:08;;;;;;;19.20;8.65;;;0.70;99.90;;;;;;5033581;28;20033;-61
2022/03/10 07:07:33;;;;;;;25.02;9.38;;;0.80;99.90;;;;;;5033367;28;20133;-61
2022/03/10 07:09:59;;;;;;;20.63;9.65;;;1.10;99.90;;;;;;5032504;28;20124;-61
2022/03/10 07:12:27;;;;;;;16.23;8.82;;;1.00;99.90;;;;;;5032490;28;20030;-62
2022/03/10 07:14:53;;;;;;;18.88;8.38;;;1.00;99.90;;;;;;5033723;28;20037;-61
2022/03/10 07:17:19;;;;;;;22.85;9.55;;;1.00;99.90;;;;;;5032310;28;20440;-62
2022/03/10 07:19:45;;;;;;;19.80;8.00;;;1.10;99.90;;;;;;5032418;28;20064;-62
2022/03/10 07:22:16;;;;;;;15.23;8.15;;;1.20;99.90;;;;;;5033751;28;20028;-62
2022/03/10 07:24:41;;;;;;;22.25;9.13;;;1.20;99.90;;;;;;5050114;28;20017;-62
2022/03/10 07:27:07;;;;;;;19.50;8.90;;;1.50;99.90;;;;;;5051567;28;20115;-62
2022/03/10 07:29:33;;;;;;;23.98;8.50;;;1.50;99.90;;;;;;5052180;28;20028;-62
2022/03/10 07:31:59;;;;;;;25.23;9.70;;;2.60;99.90;;;;;;5053721;28;20090;-62
2022/03/10 07:34:24;;;;;;;18.48;9.45;;;1.70;99.90;;;;;;5052194;28;20377;-62
2022/03/10 07:36:50;;;;;;;21.23;9.35;;;1.80;99.90;;;;;;5053260;28;20032;-63
2022/03/10 07:39:16;;;;;;;17.23;8.35;;;2.00;99.90;;;;;;5053405;28;20350;-62
2022/03/10 07:41:41;;;;;;;18.25;7.80;;;2.70;99.90;;;;;;5053357;28;20187;-62
2022/03/10 07:44:07;;;;;;;14.77;7.82;;;2.30;99.90;;;;;;5053076;28;20434;-62
2022/03/10 07:46:33;;;;;;;18.40;8.45;;;2.40;99.90;;;;;;5053385;28;20025;-62
2022/03/10 07:48:58;;;;;;;16.58;8.23;;;2.50;99.90;;;;;;5051986;28;20033;-63
2022/03/10 07:51:44;;;;;;;13.43;7.43;;;2.60;99.90;;;;;;5052237;28;20025;-62
2022/03/10 07:54:11;;;;;;;16.77;8.32;;;2.80;99.90;;;;;;5053251;28;20044;-62
2022/03/10 07:56:36;;;;;;;17.80;7.78;;;2.90;99.90;;;;;;5053436;28;20025;-62
2022/03/10 07:59:21;;;;;;;15.35;8.30;;;3.00;99.90;;;;;;5053103;28;20540;-62
2022/03/10 08:01:47;;;;;;;16.50;7.72;;;3.10;99.90;;;;;;5051934;28;20025;-62
2022/03/10 08:04:12;;;;;;;19.60;8.95;;;3.20;99.90;;;;;;5053149;28;20100;-62
2022/03/10 08:06:38;;;;;;;14.50;8.55;;;3.30;99.90;;;;;;5051699;28;20076;-62
2022/03/10 08:09:06;;;;;;;16.90;8.75;;;3.40;99.90;;;;;;5053387;28;20043;-62
2022/03/10 08:11:32;;;;;;;19.65;8.45;;;3.50;99.90;;;;;;5053083;28;20025;-62
2022/03/10 08:13:58;;;;;;;12.88;7.13;;;3.70;99.90;;;;;;5052877;28;20469;-62
2022/03/10 08:16:24;;;;;;;14.77;7.97;;;3.90;99.90;;;;;;5051820;28;20053;-62
2022/03/10 08:18:49;;;;;;;17.17;8.43;;;4.10;99.90;;;;;;5056165;28;20484;-62
2022/03/10 08:21:16;;;;;;;19.95;8.80;;;4.40;99.90;;;;;;5056551;28;20025;-62
2022/03/10 08:23:42;;;;;;;29.38;7.65;;;4.70;99.90;;;;;;5055292;28;20021;-62
2022/03/10 08:26:09;;;;;;;19.05;7.97;;;5.10;99.90;;;;;;5055366;28;20029;-62
2022/03/10 08:28:36;;;;;;;16.27;8.20;;;5.50;99.90;;;;;;5056415;28;20473;-62
2022/03/10 08:31:04;;;;;;;18.58;8.18;;;5.70;99.90;;;;;;5055165;28;20031;-62
2022/03/10 08:33:30;;;;;;;17.38;8.38;;;5.70;99.90;;;;;;5055148;28;20036;-62
2022/03/10 08:35:56;;;;;;;17.88;8.55;;;5.90;99.90;;;;;;5055038;28;20575;-62
2022/03/10 08:38:21;;;;;;;23.15;10.15;;;6.10;99.90;;;;;;5056528;28;20037;-62
2022/03/10 08:40:47;;;;;;;20.52;8.63;;;6.30;99.90;;;;;;5056762;28;20049;-62
2022/03/10 08:43:13;;;;;;;22.48;10.40;;;6.40;99.90;;;;;;5056320;28;20501;-62
2022/03/10 08:45:39;;;;;;;16.70;8.68;;;6.50;99.90;;;;;;5056156;28;20454;-63
2022/03/10 08:48:05;;;;;;;21.08;11.70;;;6.70;99.90;;;;;;5054884;28;20475;-62
2022/03/10 08:50:31;;;;;;;23.88;11.45;;;7.10;99.90;;;;;;5055107;28;20036;-62
2022/03/10 08:52:57;;;;;;;21.67;11.57;;;7.40;99.90;;;;;;5056054;28;20021;-61
2022/03/10 08:55:23;;;;;;;25.98;12.02;;;7.20;99.90;;;;;;5056137;28;20110;-62
2022/03/10 08:57:49;;;;;;;22.00;11.75;;;7.40;99.90;;;;;;5055928;28;20083;-62
2022/03/10 09:00:18;;;;;;;26.27;12.98;;;7.30;99.90;;;;;;5055890;28;20036;-62
2022/03/10 09:02:44;;;;;;;27.98;11.88;;;7.10;99.90;;;;;;5055902;28;20036;-62
2022/03/10 09:05:10;;;;;;;23.50;12.13;;;6.80;99.90;;;;;;5055531;28;20470;-62
2022/03/10 09:07:37;;;;;;;23.13;13.13;;;7.00;99.90;;;;;;5055683;28;20135;-63
2022/03/10 09:10:04;;;;;;;24.50;13.02;;;7.20;99.90;;;;;;5054498;28;20095;-63
2022/03/10 09:12:30;;;;;;;24.75;12.98;;;7.50;99.80;;;;;;5056216;28;20450;-63
2022/03/10 09:14:56;;;;;;;26.83;13.45;;;7.40;99.90;;;;;;5055702;28;20029;-62
2022/03/10 09:17:22;;;;;;;21.10;11.75;;;7.50;99.60;;;;;;5055642;28;20029;-62
2022/03/10 09:19:49;;;;;;;25.90;12.82;;;7.50;99.40;;;;;;5055513;28;20036;-62
2022/03/10 09:22:15;;;;;;;22.98;12.68;;;7.30;99.10;;;;;;5054190;28;20116;-62
2022/03/10 09:24:41;;;;;;;26.63;12.85;;;7.30;99.50;;;;;;5055394;28;20021;-62
2022/03/10 09:27:07;;;;;;;23.92;12.75;;;7.20;99.50;;;;;;5055437;28;20029;-62
2022/03/10 09:29:33;;;;;;;25.10;12.30;;;7.00;99.90;;;;;;5054041;28;20075;-63
2022/03/10 09:31:58;;;;;;;25.23;11.88;;;7.00;99.90;;;;;;5061566;28;20036;-72
2022/03/10 09:34:24;;;;;;;23.80;12.27;;;7.10;99.90;;;;;;5065278;28;20021;-73
2022/03/10 09:36:50;;;;;;;22.17;12.52;;;7.20;99.50;;;;;;5064666;28;20029;-72
2022/03/10 09:39:17;;;;;;;23.38;12.00;;;7.30;99.10;;;;;;5064068;28;20033;-72
2022/03/10 09:41:44;;;;;;;21.73;11.45;;;7.20;99.10;;;;;;5065166;28;20024;-72
2022/03/10 09:44:14;;;;;;;19.30;11.63;;;7.20;99.20;;;;;;5062690;28;20481;-72
2022/03/10 09:46:41;;;;;;;21.00;12.35;;;7.40;99.00;;;;;;5062202;28;20474;-72
2022/03/10 09:49:07;;;;;;;22.15;11.30;;;7.20;99.00;;;;;;5063066;28;20043;-73
2022/03/10 09:51:33;;;;;;;19.55;10.95;;;7.20;99.30;;;;;;5062558;28;20465;-72
2022/03/10 09:53:59;;;;;;;23.77;11.95;;;7.40;99.20;;;;;;5060701;28;20395;-72
2022/03/10 09:56:26;;;;;;;23.83;11.70;;;7.70;98.50;;;;;;5062742;28;20025;-72
2022/03/10 09:58:52;;;;;;;20.70;11.52;;;7.70;98.70;;;;;;5062455;28;20029;-72
2022/03/10 10:01:18;;;;;;;19.92;11.05;;;7.80;98.70;;;;;;5061467;28;20071;-72
2022/03/10 10:03:43;;;;;;;21.58;11.45;;;8.10;97.00;;;;;;5062117;28;20125;-73
2022/03/10 10:06:09;;;;;;;21.05;11.57;;;8.20;96.30;;;;;;5062725;28;20080;-72
2022/03/10 10:08:38;;;;;;;21.67;10.40;;;8.40;96.40;;;;;;5064029;28;20090;-73
2022/03/10 10:11:04;;;;;;;19.30;10.75;;;8.20;95.60;;;;;;5064232;28;20075;-72
2022/03/10 10:13:42;;;;;;;19.10;11.05;;;8.20;96.20;;;;;;5064130;28;20071;-72
2022/03/10 10:16:10;;;;;;;24.45;11.43;;;9.10;94.00;;;;;;5063829;28;20051;-73
2022/03/10 10:18:38;;;;;;;24.58;11.60;;;9.30;92.10;;;;;;5065382;28;20025;-73
2022/03/10 10:21:05;;;;;;;17.55;10.20;;;8.90;92.30;;;;;;5063551;28;20044;-72
2022/03/10 10:23:36;;;;;;;18.40;10.85;;;8.40;94.30;;;;;;5063038;28;20033;-73
2022/03/10 10:26:12;;;;;;;21.88;10.73;;;8.50;94.30;;;;;;5063839;28;20017;-73
2022/03/10 10:28:41;;;;;;;20.13;10.82;;;9.10;93.10;;;;;;5058156;28;20028;-72
2022/03/10 10:31:07;;;;;;;19.83;10.88;;;10.20;90.00;;;;;;5060354;28;20025;-72
2022/03/10 10:33:35;;;;;;;16.38;10.20;;;10.40;80.80;;;;;;5056416;28;20402;-62
2022/03/10 10:36:25;;;;;;;14.55;9.43;;;11.00;77.20;;;;;;5052864;28;20033;-63
2022/03/10 10:38:53;;;;;;;18.60;10.25;;;11.90;70.50;;;;;;5054175;28;20025;-62
2022/03/10 10:41:30;;;;;;;21.77;11.40;;;11.70;64.70;;;;;;5052309;28;20033;-63
2022/03/10 10:44:01;;;;;;;19.27;11.23;;;11.90;64.70;;;;;;5054015;28;20036;-63
2022/03/10 10:46:27;;;;;;;18.55;9.95;;;12.50;61.00;;;;;;5053572;28;20028;-62
2022/03/10 10:48:53;;;;;;;17.88;11.43;;;12.20;60.50;;;;;;5052696;28;20412;-63
2022/03/10 10:51:33;;;;;;;20.08;10.20;;;12.90;58.40;;;;;;5053894;28;20028;-62
2022/03/10 10:54:00;;;;;;;20.05;10.20;;;13.30;56.50;;;;;;5053780;28;20039;-62
2022/03/10 10:56:30;;;;;;;14.20;9.45;;;13.20;53.00;;;;;;5052541;28;20115;-62
2022/03/10 10:58:56;;;;;;;18.08;9.73;;;13.60;52.20;;;;;;5052376;28;20029;-62
2022/03/10 11:01:33;;;;;;;16.35;10.43;;;13.10;52.20;;;;;;5052445;28;20029;-63
2022/03/10 11:03:59;;;;;;;16.88;10.38;;;12.20;53.60;;;;;;5052712;28;20025;-63
2022/03/10 11:06:25;;;;;;;15.82;9.45;;;11.60;55.60;;;;;;5053352;28;20382;-62
2022/03/10 11:08:52;;;;;;;16.65;10.07;;;10.90;57.00;;;;;;5053449;28;20432;-62
2022/03/10 11:11:20;;;;;;;16.23;10.23;;;10.50;60.20;;;;;;5053679;28;20532;-62
2022/03/10 11:13:46;;;;;;;19.65;10.95;;;10.70;61.60;;;;;;5053610;28;20025;-62
2022/03/10 11:16:15;;;;;;;16.23;10.93;;;10.40;60.00;;;;;;5053636;28;20028;-62
2022/03/10 11:18:43;;;;;;;17.65;10.80;;;10.60;60.50;;;;;;5052263;28;20056;-62
2022/03/10 11:21:17;;;;;;;13.93;9.35;;;10.20;62.50;;;;;;5053339;28;20073;-62
2022/03/10 11:24:15;;;;;;;16.42;9.60;;;10.90;59.80;;;;;;5052348;28;20132;-62
2022/03/10 11:26:46;;;;;;;16.17;10.73;;;11.90;55.70;;;;;;5053554;28;20029;-63
2022/03/10 11:29:19;;;;;;;17.35;9.63;;;13.00;52.40;;;;;;5052250;28;20082;-62
2022/03/10 11:31:45;;;;;;;17.27;9.90;;;13.40;50.50;;;;;;5052254;28;20116;-62
2022/03/10 11:34:31;;;;;;;15.05;10.00;;;14.00;47.80;;;;;;5053408;28;20469;-62
2022/03/10 11:36:56;;;;;;;16.15;9.30;;;14.10;46.70;;;;;;5051892;28;20075;-62
2022/03/10 11:39:23;;;;;;;15.77;9.85;;;12.70;48.40;;;;;;5053568;28;20025;-62
2022/03/10 11:41:53;;;;;;;17.60;10.80;;;11.30;49.60;;;;;;5053406;28;20487;-63
2022/03/10 11:44:22;;;;;;;15.13;9.77;;;11.20;52.20;;;;;;5053875;28;20092;-62
2022/03/10 11:47:00;;;;;;;15.43;9.85;;;12.10;51.30;;;;;;5052177;28;20021;-63
2022/03/10 11:49:39;;;;;;;16.02;9.32;;;13.30;47.70;;;;;;5053789;28;20342;-62
2022/03/10 11:52:24;;;;;;;14.77;9.10;;;14.50;44.80;;;;;;5053569;28;20600;-62
2022/03/10 11:55:12;;;;;;;12.85;9.02;;;15.10;42.30;;;;;;5057160;28;20033;-63
2022/03/10 11:57:55;;;;;;;17.65;9.90;;;14.30;43.20;;;;;;5056829;28;20024;-63
2022/03/10 12:00:44;;;;;;;13.55;9.50;;;13.60;44.30;;;;;;5056881;28;20029;-62
2022/03/10 12:03:27;;;;;;;17.73;10.23;;;12.70;46.00;;;;;;5057057;28;20116;-62
2022/03/10 12:06:15;;;;;;;17.35;10.77;;;12.10;47.50;;;;;;5056853;28;20071;-62
2022/03/10 12:08:41;;;;;;;18.93;10.83;;;11.40;48.40;;;;;;5057093;28;20124;-62
2022/03/10 12:11:14;;;;;;;16.13;9.73;;;10.50;51.70;;;;;;5055267;28;20363;-62
2022/03/10 12:13:45;;;;;;;15.13;10.10;;;11.40;51.40;;;;;;5056559;28;20029;-62
2022/03/10 12:16:22;;;;;;;15.20;8.77;;;13.00;48.20;;;;;;5056912;28;20018;-62
2022/03/10 12:18:48;;;;;;;13.57;8.88;;;14.40;43.00;;;;;;5055011;28;20112;-62
2022/03/10 12:21:22;;;;;;;13.93;8.75;;;14.20;40.70;;;;;;5056558;28;20116;-62
2022/03/10 12:23:52;;;;;;;12.63;9.45;;;13.90;41.30;;;;;;5056477;28;20031;-62
2022/03/10 12:26:27;;;;;;;15.07;9.18;;;13.80;41.30;;;;;;5056721;28;20075;-62
2022/03/10 12:29:05;;;;;;;17.27;10.15;;;13.50;42.20;;;;;;5056689;28;20032;-62
2022/03/10 12:31:35;;;;;;;16.02;9.77;;;13.20;42.40;;;;;;5055201;28;20056;-62
2022/03/10 12:34:15;;;;;;;15.45;8.63;;;12.00;44.10;;;;;;5056700;28;20024;-63
2022/03/10 12:36:53;;;;;;;18.45;9.68;;;11.00;44.10;;;;;;5056484;28;20025;-63
2022/03/10 12:39:21;;;;;;;14.30;8.85;;;10.50;45.70;;;;;;5056464;28;20036;-62
2022/03/10 12:41:50;;;;;;;14.93;8.95;;;10.90;46.90;;;;;;5055007;28;20040;-62
2022/03/10 12:44:19;;;;;;;;;;;12.40;44.20;;;;;;5056747;28;20025;-62
2022/03/10 12:46:46;;;;;;;12.52;7.68;;;13.00;40.20;;;;;;5056396;28;19999;-62
2022/03/10 12:49:48;;;;;;;11.38;7.25;;;13.40;40.10;;;;;;5055036;28;20087;-63